createdAt,value
2023-03-25T00:00:24.645Z,99.90
2023-03-25T00:02:53.607Z,99.90
2023-03-25T00:05:23.207Z,99.90
2023-03-25T00:07:53.129Z,99.90
2023-03-25T00:10:21.472Z,99.90
2023-03-25T00:12:49.475Z,99.90
2023-03-25T00:15:19.063Z,99.90
2023-03-25T00:17:47.151Z,99.90
2023-03-25T00:20:15.302Z,99.90
2023-03-25T00:22:44.621Z,99.90
2023-03-25T00:25:17.264Z,99.90
2023-03-25T00:27:46.862Z,99.90
2023-03-25T00:30:16.743Z,99.90
2023-03-25T00:32:50.225Z,99.90
2023-03-25T00:35:19.786Z,99.90
2023-03-25T00:37:57.482Z,99.90
2023-03-25T00:40:25.896Z,99.90
2023-03-25T00:42:53.760Z,99.90
2023-03-25T00:45:21.962Z,99.90
2023-03-25T00:47:51.338Z,99.90
2023-03-25T00:50:19.426Z,99.90
2023-03-25T00:52:47.325Z,99.90
2023-03-25T00:55:15.691Z,99.90
2023-03-25T00:57:43.611Z,99.90
2023-03-25T01:00:15.618Z,99.90
2023-03-25T01:02:44.021Z,99.90
2023-03-25T01:05:14.062Z,99.90
2023-03-25T01:07:42.693Z,99.90
2023-03-25T01:10:11.686Z,99.90
2023-03-25T01:12:39.629Z,99.90
2023-03-25T01:15:08.884Z,99.90
2023-03-25T01:17:36.825Z,99.90
2023-03-25T01:20:08.937Z,99.90
2023-03-25T01:22:38.707Z,99.90
2023-03-25T01:25:06.989Z,99.90
2023-03-25T01:27:34.859Z,99.90
2023-03-25T01:30:02.813Z,99.90
2023-03-25T01:32:30.810Z,99.90
2023-03-25T01:34:58.688Z,99.90
2023-03-25T01:37:27.277Z,99.90
2023-03-25T01:39:56.478Z,99.90
2023-03-25T01:42:24.405Z,99.90
2023-03-25T01:45:13.828Z,99.90
2023-03-25T01:47:42.295Z,99.90
2023-03-25T01:50:14.760Z,99.90
2023-03-25T01:52:45.418Z,99.90
2023-03-25T01:55:15.472Z,99.90
2023-03-25T01:57:46.315Z,99.90
2023-03-25T02:00:16.623Z,99.90
2023-03-25T02:02:45.771Z,99.90
2023-03-25T02:05:21.162Z,99.90
2023-03-25T02:07:50.449Z,99.90
2023-03-25T02:10:21.008Z,99.90
2023-03-25T02:12:48.972Z,99.90
2023-03-25T02:15:19.232Z,99.90
2023-03-25T02:18:01.810Z,99.90
2023-03-25T02:21:04.218Z,99.90
2023-03-25T02:24:07.096Z,99.90
2023-03-25T02:27:14.067Z,99.90
2023-03-25T02:30:06.932Z,99.90
2023-03-25T02:32:52.128Z,99.90
2023-03-25T02:35:34.919Z,99.90
2023-03-25T02:38:19.122Z,99.90
2023-03-25T02:40:55.599Z,99.90
2023-03-25T02:43:30.148Z,99.90
2023-03-25T02:46:02.368Z,99.90
2023-03-25T02:48:34.985Z,99.90
2023-03-25T02:51:10.255Z,99.90
2023-03-25T02:53:42.629Z,99.90
2023-03-25T02:56:16.907Z,99.90
2023-03-25T02:58:47.762Z,99.90
2023-03-25T03:01:15.805Z,99.90
2023-03-25T03:03:43.791Z,99.90
2023-03-25T03:06:18.756Z,99.90
2023-03-25T03:09:25.481Z,99.90
2023-03-25T03:12:09.335Z,99.90
2023-03-25T03:14:54.406Z,99.90
2023-03-25T03:17:28.576Z,99.90
2023-03-25T03:19:59.088Z,99.90
2023-03-25T03:22:38.277Z,99.90
2023-03-25T03:25:18.101Z,99.90
2023-03-25T03:27:50.720Z,99.90
2023-03-25T03:30:26.587Z,99.90
2023-03-25T03:33:01.122Z,99.90
2023-03-25T03:35:32.757Z,99.90
2023-03-25T03:38:04.916Z,99.90
2023-03-25T03:40:37.457Z,99.90
2023-03-25T03:43:08.964Z,99.90
2023-03-25T03:45:43.989Z,99.90
2023-03-25T03:48:14.858Z,99.90
2023-03-25T03:50:48.753Z,99.90
2023-03-25T03:53:21.727Z,99.90
2023-03-25T03:55:54.202Z,99.90
2023-03-25T03:58:28.508Z,99.90
2023-03-25T04:01:03.792Z,99.90
2023-03-25T04:03:38.901Z,99.90
2023-03-25T04:06:13.430Z,99.90
2023-03-25T04:08:51.712Z,99.90
2023-03-25T04:11:24.628Z,99.90
2023-03-25T04:13:56.742Z,99.90
2023-03-25T04:16:24.803Z,99.90
2023-03-25T04:18:53.442Z,99.90
2023-03-25T04:21:21.592Z,99.90
2023-03-25T04:23:51.679Z,99.90
2023-03-25T04:26:21.752Z,99.90
2023-03-25T04:28:49.653Z,99.90
2023-03-25T04:31:18.251Z,99.90
2023-03-25T04:33:48.411Z,99.90
2023-03-25T04:36:17.169Z,99.90
2023-03-25T04:38:46.153Z,99.90
2023-03-25T04:41:15.110Z,99.90
2023-03-25T04:43:45.424Z,99.90
2023-03-25T04:46:15.450Z,99.90
2023-03-25T04:48:45.087Z,99.90
2023-03-25T04:51:13.964Z,99.90
2023-03-25T04:53:42.936Z,99.90
2023-03-25T04:56:16.159Z,99.90
2023-03-25T04:58:46.295Z,99.90
2023-03-25T05:01:23.258Z,99.90
2023-03-25T05:03:51.324Z,99.90
2023-03-25T05:06:19.492Z,99.90
2023-03-25T05:08:47.369Z,99.90
2023-03-25T05:11:15.246Z,99.90
2023-03-25T05:13:43.126Z,99.90
2023-03-25T05:16:12.458Z,99.90
2023-03-25T05:18:40.447Z,99.90
2023-03-25T05:21:08.872Z,99.90
2023-03-25T05:23:36.808Z,99.90
2023-03-25T05:26:06.170Z,99.90
2023-03-25T05:28:34.314Z,99.90
2023-03-25T05:31:08.205Z,99.90
2023-03-25T05:33:43.346Z,99.90
2023-03-25T05:36:12.059Z,99.90
2023-03-25T05:38:41.687Z,99.90
2023-03-25T05:41:10.766Z,99.90
2023-03-25T05:43:38.834Z,99.90
2023-03-25T05:46:07.410Z,99.90
2023-03-25T05:48:35.698Z,99.90
2023-03-25T05:51:07.294Z,99.90
2023-03-25T05:53:35.216Z,99.90
2023-03-25T05:56:03.140Z,99.90
2023-03-25T05:58:32.497Z,99.90
2023-03-25T06:01:03.023Z,99.90
2023-03-25T06:03:34.447Z,99.90
2023-03-25T06:06:05.492Z,99.90
2023-03-25T06:08:35.243Z,99.90
2023-03-25T06:11:04.004Z,99.90
2023-03-25T06:13:33.939Z,99.90
2023-03-25T06:16:03.015Z,99.90
2023-03-25T06:18:31.002Z,99.90
2023-03-25T06:20:58.946Z,99.90
2023-03-25T06:23:28.849Z,99.90
2023-03-25T06:25:58.671Z,99.90
2023-03-25T06:28:26.636Z,99.90
2023-03-25T06:30:54.601Z,99.90
2023-03-25T06:33:42.781Z,99.90
2023-03-25T06:36:11.635Z,99.90
2023-03-25T06:38:42.144Z,99.90
2023-03-25T06:41:10.066Z,99.90
2023-03-25T06:43:38.048Z,99.90
2023-03-25T06:46:06.397Z,99.90
2023-03-25T06:48:34.400Z,99.90
2023-03-25T06:51:02.544Z,99.90
2023-03-25T06:53:30.578Z,99.90
2023-03-25T06:56:00.413Z,99.90
2023-03-25T06:58:34.783Z,99.90
2023-03-25T07:01:06.940Z,99.90
2023-03-25T07:03:36.256Z,99.90
2023-03-25T07:06:04.670Z,99.90
2023-03-25T07:08:32.875Z,99.90
2023-03-25T07:11:04.183Z,99.90
2023-03-25T07:13:32.197Z,99.90
2023-03-25T07:16:01.831Z,99.90
2023-03-25T07:18:29.854Z,99.90
2023-03-25T07:20:57.933Z,99.90
2023-03-25T07:23:26.200Z,99.90
2023-03-25T07:25:54.300Z,99.90
2023-03-25T07:28:23.711Z,99.90
2023-03-25T07:30:51.791Z,99.90
2023-03-25T07:33:19.707Z,99.90
2023-03-25T07:35:47.771Z,99.90
2023-03-25T07:38:15.766Z,99.90
2023-03-25T07:40:43.700Z,99.90
2023-03-25T07:43:18.045Z,99.90
2023-03-25T07:45:47.477Z,99.90
2023-03-25T07:48:16.324Z,99.90
2023-03-25T07:50:45.747Z,99.90
2023-03-25T07:53:13.801Z,99.90
2023-03-25T07:55:42.013Z,99.90
2023-03-25T07:58:10.034Z,99.90
2023-03-25T08:00:37.929Z,99.90
2023-03-25T08:03:07.583Z,99.90
2023-03-25T08:05:38.014Z,99.90
2023-03-25T08:08:10.022Z,99.90
2023-03-25T08:10:37.956Z,99.90
2023-03-25T08:13:11.282Z,99.90
2023-03-25T08:15:39.462Z,99.90
2023-03-25T08:18:09.009Z,99.90
2023-03-25T08:20:39.241Z,99.50
2023-03-25T08:23:10.488Z,97.40
2023-03-25T08:25:39.374Z,97.70
2023-03-25T08:28:07.362Z,98.30
2023-03-25T08:30:38.999Z,99.40
2023-03-25T08:33:08.559Z,99.90
2023-03-25T08:35:37.471Z,99.90
2023-03-25T08:38:06.759Z,99.90
2023-03-25T08:40:35.333Z,99.90
2023-03-25T08:43:14.964Z,99.90
2023-03-25T08:45:45.063Z,99.90
2023-03-25T08:48:15.763Z,99.90
2023-03-25T08:50:43.847Z,99.90
2023-03-25T08:53:11.812Z,99.90
2023-03-25T08:55:39.912Z,99.90
2023-03-25T08:58:09.116Z,99.90
2023-03-25T09:00:38.677Z,99.90
2023-03-25T09:03:07.111Z,99.90
2023-03-25T09:05:39.780Z,99.90
2023-03-25T09:08:09.609Z,96.90
2023-03-25T09:10:38.175Z,93.30
2023-03-25T09:13:06.304Z,90.30
2023-03-25T09:15:34.465Z,86.20
2023-03-25T09:18:02.521Z,82.80
2023-03-25T09:20:30.845Z,79.80
2023-03-25T09:23:00.669Z,71.70
2023-03-25T09:25:28.655Z,68.50
2023-03-25T09:27:56.618Z,65.40
2023-03-25T09:30:40.085Z,63.90
2023-03-25T09:33:08.165Z,60.10
2023-03-25T09:35:36.189Z,58.20
2023-03-25T09:38:05.789Z,57.70
2023-03-25T09:40:35.115Z,59.30
2023-03-25T09:43:11.634Z,61.50
2023-03-25T09:45:44.198Z,63.70
2023-03-25T09:48:24.760Z,61.50
2023-03-25T09:50:52.872Z,61.10
2023-03-25T09:53:32.559Z,61.80
2023-03-25T09:56:02.125Z,60.90
2023-03-25T09:58:40.043Z,63.10
2023-03-25T10:01:28.941Z,64.10
2023-03-25T10:04:23.921Z,64.40
2023-03-25T10:07:17.969Z,64.10
2023-03-25T10:09:57.333Z,65.20
2023-03-25T10:12:41.109Z,63.20
2023-03-25T10:15:40.911Z,64.00
2023-03-25T10:19:02.576Z,62.70
2023-03-25T10:21:54.768Z,61.70
2023-03-25T10:24:28.041Z,63.30
2023-03-25T10:27:01.504Z,64.60
2023-03-25T10:29:35.761Z,67.80
2023-03-25T10:32:08.897Z,71.00
2023-03-25T10:34:42.937Z,72.60
2023-03-25T10:37:14.447Z,75.10
2023-03-25T10:39:45.978Z,76.30
2023-03-25T10:42:26.182Z,77.30
2023-03-25T10:44:55.548Z,77.90
2023-03-25T10:47:27.959Z,78.80
2023-03-25T10:49:56.975Z,80.00
2023-03-25T10:52:25.035Z,81.50
2023-03-25T10:54:56.728Z,83.00
2023-03-25T10:57:29.648Z,84.30
2023-03-25T11:00:06.369Z,85.00
2023-03-25T11:02:35.684Z,86.20
2023-03-25T11:05:06.519Z,88.60
2023-03-25T11:07:38.264Z,93.40
2023-03-25T11:10:18.240Z,96.80
2023-03-25T11:12:48.389Z,99.90
2023-03-25T11:15:19.584Z,99.90
2023-03-25T11:17:49.559Z,99.90
2023-03-25T11:20:26.764Z,99.90
2023-03-25T11:22:56.085Z,99.90
2023-03-25T11:25:27.661Z,99.90
2023-03-25T11:27:59.917Z,99.90
2023-03-25T11:30:28.228Z,99.90
2023-03-25T11:33:02.160Z,99.90
2023-03-25T11:35:36.889Z,99.90
2023-03-25T11:38:17.450Z,99.90
2023-03-25T11:40:54.880Z,99.90
2023-03-25T11:43:26.276Z,99.90
2023-03-25T11:45:54.913Z,99.90
2023-03-25T11:48:24.644Z,99.90
2023-03-25T11:50:58.682Z,99.90
2023-03-25T11:53:28.660Z,99.90
2023-03-25T11:56:00.276Z,99.90
2023-03-25T11:58:33.649Z,99.90
2023-03-25T12:01:04.026Z,99.90
2023-03-25T12:03:33.655Z,99.90
2023-03-25T12:06:07.174Z,99.90
2023-03-25T12:08:43.984Z,99.90
2023-03-25T12:11:18.220Z,99.90
2023-03-25T12:14:14.388Z,99.90
2023-03-25T12:16:48.641Z,99.90
2023-03-25T12:19:25.725Z,99.90
2023-03-25T12:22:09.605Z,99.90
2023-03-25T12:24:50.462Z,99.90
2023-03-25T12:27:28.678Z,99.90
2023-03-25T12:30:06.100Z,99.90
2023-03-25T12:32:42.556Z,99.90
2023-03-25T12:35:26.965Z,99.90
2023-03-25T12:38:13.577Z,99.90
2023-03-25T12:41:07.703Z,99.90
2023-03-25T12:43:50.681Z,99.90
2023-03-25T12:46:36.056Z,99.90
2023-03-25T12:49:17.561Z,99.90
2023-03-25T12:51:55.666Z,99.90
2023-03-25T12:54:41.840Z,99.90
2023-03-25T12:57:22.011Z,99.90
2023-03-25T13:00:15.553Z,99.90
2023-03-25T13:03:16.764Z,99.90
2023-03-25T13:05:51.644Z,99.90
2023-03-25T13:08:24.327Z,99.90
2023-03-25T13:10:59.497Z,99.90
2023-03-25T13:13:29.707Z,99.90
2023-03-25T13:16:05.616Z,99.90
2023-03-25T13:18:40.297Z,99.90
2023-03-25T13:21:14.393Z,99.90
2023-03-25T13:23:44.576Z,99.90
2023-03-25T13:26:15.473Z,99.90
2023-03-25T13:28:48.087Z,99.90
2023-03-25T13:31:20.156Z,99.90
2023-03-25T13:33:58.073Z,99.90
2023-03-25T13:36:30.755Z,99.90
2023-03-25T13:39:05.258Z,99.90
2023-03-25T13:41:39.844Z,99.90
2023-03-25T13:44:13.909Z,99.90
2023-03-25T13:46:46.979Z,99.90
2023-03-25T13:49:23.145Z,99.90
2023-03-25T13:51:53.751Z,99.90
2023-03-25T13:54:25.582Z,99.90
2023-03-25T13:57:26.137Z,99.90
2023-03-25T14:00:21.765Z,99.90
2023-03-25T14:03:17.397Z,99.90
2023-03-25T14:06:24.049Z,99.90
2023-03-25T14:09:24.957Z,99.90
2023-03-25T14:11:57.968Z,99.90
2023-03-25T14:14:27.111Z,99.90
2023-03-25T14:16:58.666Z,99.90
2023-03-25T14:19:33.251Z,99.90
2023-03-25T14:22:08.303Z,99.90
2023-03-25T14:24:37.875Z,99.90
2023-03-25T14:27:08.481Z,99.90
2023-03-25T14:29:40.000Z,99.90
2023-03-25T14:32:32.329Z,99.90
2023-03-25T14:35:41.359Z,99.90
2023-03-25T14:38:49.225Z,99.90
2023-03-25T14:41:18.842Z,99.90
2023-03-25T14:43:53.864Z,99.90
2023-03-25T14:46:24.091Z,99.90
2023-03-25T14:48:55.079Z,99.90
2023-03-25T14:51:45.551Z,99.90
2023-03-25T14:54:27.281Z,99.90
2023-03-25T14:57:04.020Z,99.90
2023-03-25T14:59:34.455Z,99.90
2023-03-25T15:02:06.965Z,99.90
2023-03-25T15:04:38.001Z,99.90
2023-03-25T15:07:12.626Z,99.90
2023-03-25T15:09:48.368Z,99.90
2023-03-25T15:12:20.806Z,99.90
2023-03-25T15:14:56.016Z,99.90
2023-03-25T15:17:54.429Z,99.90
2023-03-25T15:20:31.684Z,99.90
2023-03-25T15:23:33.785Z,99.90
2023-03-25T15:26:04.915Z,99.90
2023-03-25T15:28:48.178Z,99.90
2023-03-25T15:31:28.184Z,99.90
2023-03-25T15:34:16.808Z,99.90
2023-03-25T15:37:10.701Z,99.90
2023-03-25T15:39:59.313Z,99.90
2023-03-25T15:42:56.490Z,99.90
2023-03-25T15:45:42.840Z,99.90
2023-03-25T15:48:29.264Z,99.90
2023-03-25T15:51:20.028Z,99.90
2023-03-25T15:54:31.904Z,99.90
2023-03-25T15:57:02.907Z,99.90
2023-03-25T15:59:39.194Z,99.90
2023-03-25T16:02:16.523Z,99.90
2023-03-25T16:04:48.793Z,99.90
2023-03-25T16:07:20.375Z,99.90
2023-03-25T16:09:49.597Z,99.90
2023-03-25T16:12:22.990Z,99.90
2023-03-25T16:14:54.365Z,99.90
2023-03-25T16:17:31.739Z,99.90
2023-03-25T16:20:02.116Z,99.90
2023-03-25T16:22:32.925Z,99.90
2023-03-25T16:25:03.552Z,99.90
2023-03-25T16:27:34.973Z,99.90
2023-03-25T16:30:03.162Z,99.90
2023-03-25T16:32:35.993Z,99.90
2023-03-25T16:35:04.725Z,99.90
2023-03-25T16:37:34.097Z,99.90
2023-03-25T16:40:07.210Z,99.90
2023-03-25T16:42:37.211Z,99.90
2023-03-25T16:45:06.576Z,99.90
2023-03-25T16:47:36.871Z,99.90
2023-03-25T16:50:06.707Z,99.90
2023-03-25T16:52:36.123Z,99.90
2023-03-25T16:55:35.584Z,99.90
2023-03-25T16:58:04.075Z,99.90
2023-03-25T17:00:41.811Z,99.90
2023-03-25T17:03:21.650Z,99.90
2023-03-25T17:06:05.579Z,99.90
2023-03-25T17:08:33.558Z,99.80
2023-03-25T17:11:01.906Z,99.90
2023-03-25T17:13:39.067Z,99.80
2023-03-25T17:16:08.795Z,99.90
2023-03-25T17:18:51.226Z,99.90
2023-03-25T17:21:26.603Z,99.90
2023-03-25T17:23:56.321Z,99.80
2023-03-25T17:26:26.523Z,99.90
2023-03-25T17:29:03.358Z,99.90
2023-03-25T17:31:34.722Z,99.90
2023-03-25T17:34:07.735Z,99.90
2023-03-25T17:36:37.876Z,99.90
2023-03-25T17:39:14.060Z,99.90
2023-03-25T17:41:41.984Z,99.90
2023-03-25T17:44:13.046Z,99.90
2023-03-25T17:46:41.633Z,99.90
2023-03-25T17:49:17.050Z,99.90
2023-03-25T17:51:46.592Z,99.90
2023-03-25T17:54:15.615Z,99.90
2023-03-25T17:56:43.930Z,99.90
2023-03-25T17:59:19.743Z,99.90
2023-03-25T18:01:49.969Z,99.90
2023-03-25T18:04:21.074Z,99.90
2023-03-25T18:06:49.246Z,99.90
2023-03-25T18:09:18.512Z,99.90
2023-03-25T18:11:48.334Z,99.90
2023-03-25T18:14:16.526Z,99.90
2023-03-25T18:16:44.522Z,99.90
2023-03-25T18:19:16.279Z,99.90
2023-03-25T18:21:46.573Z,99.90
2023-03-25T18:24:16.207Z,99.90
2023-03-25T18:26:46.810Z,99.90
2023-03-25T18:29:19.829Z,99.90
2023-03-25T18:31:50.473Z,99.90
2023-03-25T18:34:20.677Z,99.90
2023-03-25T18:36:53.669Z,99.90
2023-03-25T18:39:24.435Z,99.90
2023-03-25T18:41:52.803Z,99.90
2023-03-25T18:44:21.308Z,99.90
2023-03-25T18:46:49.222Z,99.90
2023-03-25T18:49:20.062Z,99.90
2023-03-25T18:51:49.776Z,99.90
2023-03-25T18:54:18.193Z,99.90
2023-03-25T18:56:46.640Z,99.90
2023-03-25T18:59:18.773Z,99.90
2023-03-25T19:01:47.445Z,99.90
2023-03-25T19:04:15.609Z,99.90
2023-03-25T19:06:44.293Z,99.90
2023-03-25T19:09:19.195Z,99.90
2023-03-25T19:11:48.099Z,99.90
2023-03-25T19:14:16.110Z,99.90
2023-03-25T19:16:57.105Z,99.90
2023-03-25T19:19:29.462Z,99.90
2023-03-25T19:21:58.248Z,99.90
2023-03-25T19:24:27.641Z,99.90
2023-03-25T19:26:56.847Z,99.90
2023-03-25T19:29:24.783Z,99.90
2023-03-25T19:31:53.157Z,99.90
2023-03-25T19:34:23.182Z,99.90
2023-03-25T19:36:53.622Z,99.90
2023-03-25T19:39:22.813Z,99.90
2023-03-25T19:41:53.253Z,99.90
2023-03-25T19:44:21.815Z,99.90
2023-03-25T19:46:50.056Z,99.90
2023-03-25T19:49:38.667Z,99.90
2023-03-25T19:52:07.788Z,99.90
2023-03-25T19:54:35.863Z,99.90
2023-03-25T19:57:05.707Z,99.90
2023-03-25T19:59:33.991Z,99.90
2023-03-25T20:02:02.027Z,99.90
2023-03-25T20:04:30.098Z,99.90
2023-03-25T20:06:58.168Z,99.90
2023-03-25T20:09:27.821Z,99.90
2023-03-25T20:11:59.114Z,99.90
2023-03-25T20:14:28.398Z,99.90
2023-03-25T20:16:56.464Z,99.90
2023-03-25T20:19:24.564Z,99.90
2023-03-25T20:21:52.716Z,99.90
2023-03-25T20:24:23.469Z,99.90
2023-03-25T20:26:51.967Z,99.90
2023-03-25T20:29:19.953Z,99.90
2023-03-25T20:31:51.749Z,99.90
2023-03-25T20:34:19.650Z,99.90
2023-03-25T20:36:48.210Z,99.90
2023-03-25T20:39:16.450Z,99.90
2023-03-25T20:41:45.006Z,99.90
2023-03-25T20:44:13.710Z,99.90
2023-03-25T20:46:48.158Z,99.90
2023-03-25T20:49:21.630Z,99.90
2023-03-25T20:51:50.986Z,99.90
2023-03-25T20:54:19.066Z,99.90
2023-03-25T20:56:47.083Z,99.90
2023-03-25T20:59:21.944Z,99.90
2023-03-25T21:01:53.491Z,99.90
2023-03-25T21:04:23.889Z,99.90
2023-03-25T21:06:53.327Z,99.90
2023-03-25T21:09:21.918Z,99.90
2023-03-25T21:11:49.930Z,99.90
2023-03-25T21:14:18.778Z,99.90
2023-03-25T21:16:46.982Z,99.90
2023-03-25T21:19:15.031Z,99.90
2023-03-25T21:21:44.390Z,99.90
2023-03-25T21:24:13.804Z,99.90
2023-03-25T21:26:41.791Z,99.90
2023-03-25T21:29:09.744Z,99.90
2023-03-25T21:31:37.828Z,99.90
2023-03-25T21:34:06.424Z,99.90
2023-03-25T21:36:34.340Z,99.90
2023-03-25T21:39:06.874Z,99.90
2023-03-25T21:41:36.289Z,99.90
2023-03-25T21:44:05.166Z,99.90
2023-03-25T21:46:33.621Z,99.90
2023-03-25T21:49:03.787Z,99.90
2023-03-25T21:51:32.528Z,99.90
2023-03-25T21:54:02.162Z,99.90
2023-03-25T21:56:35.261Z,99.90
2023-03-25T21:59:04.651Z,99.90
2023-03-25T22:01:32.977Z,99.90
2023-03-25T22:04:02.073Z,99.90
2023-03-25T22:06:33.352Z,99.90
2023-03-25T22:09:05.238Z,99.90
2023-03-25T22:11:37.476Z,99.90
2023-03-25T22:14:10.398Z,99.90
2023-03-25T22:16:39.282Z,99.90
2023-03-25T22:19:07.824Z,99.90
2023-03-25T22:21:37.633Z,99.90
2023-03-25T22:24:07.292Z,99.90
2023-03-25T22:26:49.859Z,99.90
2023-03-25T22:29:18.727Z,99.90
2023-03-25T22:31:47.036Z,99.90
2023-03-25T22:34:16.153Z,99.90
2023-03-25T22:36:50.243Z,99.90
2023-03-25T22:39:19.268Z,99.90
2023-03-25T22:41:48.697Z,99.90
2023-03-25T22:44:18.344Z,99.90
2023-03-25T22:46:50.617Z,99.90
2023-03-25T22:49:19.317Z,99.90
2023-03-25T22:51:58.045Z,99.90
2023-03-25T22:54:26.183Z,99.90
2023-03-25T22:56:59.584Z,99.90
2023-03-25T22:59:32.580Z,99.90
2023-03-25T23:02:01.195Z,99.90
2023-03-25T23:04:31.818Z,99.90
2023-03-25T23:07:07.870Z,99.90
2023-03-25T23:09:51.085Z,99.90
2023-03-25T23:12:24.512Z,99.90
2023-03-25T23:14:54.410Z,99.90
2023-03-25T23:17:23.036Z,99.90
2023-03-25T23:20:01.203Z,99.90
2023-03-25T23:22:32.769Z,99.90
2023-03-25T23:25:02.265Z,99.90
2023-03-25T23:27:38.066Z,99.90
2023-03-25T23:30:10.638Z,99.90
2023-03-25T23:32:39.868Z,99.90
2023-03-25T23:35:13.365Z,99.90
2023-03-25T23:37:41.894Z,99.90
2023-03-25T23:40:12.511Z,99.90
2023-03-25T23:42:44.827Z,99.90
2023-03-25T23:45:14.642Z,99.90
2023-03-25T23:47:42.863Z,99.90
2023-03-25T23:50:14.442Z,99.90
2023-03-25T23:52:42.520Z,99.90
2023-03-25T23:55:12.413Z,99.90
2023-03-25T23:57:41.782Z,99.90
